Time;durP1;ratioP1;P1;durP2;ratioP2;P2;SDS_P1;SDS_P2;PMS_P1;PMS_P2;Temp;Humidity;BMP_temperature;BMP_pressure;BME280_temperature;BME280_humidity;BME280_pressure;Samples;Min_cycle;Max_cycle;Signal;HPM_P1;HPM_P2
2022/12/31 00:01:52;;;;;;;1.27;0.80;;;9.10;99.90;;;;;;5072453;28;20505;-32
2022/12/31 00:04:18;;;;;;;1.80;0.70;;;9.10;99.90;;;;;;5071801;28;20032;-42
2022/12/31 00:06:44;;;;;;;0.82;0.65;;;9.10;99.90;;;;;;5071371;28;20488;-35
2022/12/31 00:09:10;;;;;;;1.08;0.70;;;9.10;99.90;;;;;;5071687;28;20020;-38
2022/12/31 00:11:36;;;;;;;1.33;0.80;;;9.10;99.90;;;;;;5071800;28;20029;-33
2022/12/31 00:14:03;;;;;;;0.82;0.68;;;9.00;99.90;;;;;;5071640;28;20099;-42
2022/12/31 00:16:32;;;;;;;0.95;0.65;;;9.10;99.90;;;;;;5071229;28;20389;-39
2022/12/31 00:18:59;;;;;;;0.80;0.70;;;9.10;99.90;;;;;;5071614;28;20120;-36
2022/12/31 00:21:27;;;;;;;1.15;0.85;;;9.10;99.90;;;;;;5071595;28;20032;-35
2022/12/31 00:23:53;;;;;;;1.30;0.60;;;9.10;99.90;;;;;;5071994;28;20032;-34
2022/12/31 00:26:21;;;;;;;0.90;0.60;;;9.10;99.90;;;;;;5071711;28;20629;-37
2022/12/31 00:28:47;;;;;;;0.80;0.60;;;9.10;99.90;;;;;;5071395;28;20021;-37
2022/12/31 00:31:16;;;;;;;0.68;0.57;;;9.10;99.90;;;;;;5071343;28;20029;-36
2022/12/31 00:33:43;;;;;;;1.00;0.88;;;9.10;99.90;;;;;;5071259;28;20474;-42
2022/12/31 00:36:12;;;;;;;1.50;0.80;;;9.10;99.90;;;;;;5071135;28;20032;-42
2022/12/31 00:38:38;;;;;;;1.55;0.90;;;9.10;99.90;;;;;;5071523;28;20025;-35
2022/12/31 00:41:04;;;;;;;1.25;0.90;;;9.10;99.90;;;;;;5071789;28;20024;-40
2022/12/31 00:43:30;;;;;;;1.27;0.77;;;9.10;99.90;;;;;;5071435;28;20029;-42
2022/12/31 00:45:56;;;;;;;0.88;0.63;;;9.10;99.90;;;;;;5071825;28;20033;-37
2022/12/31 00:48:21;;;;;;;0.80;0.75;;;9.10;99.90;;;;;;5071016;28;20028;-39
2022/12/31 00:50:47;;;;;;;1.00;0.80;;;9.10;99.90;;;;;;5071145;28;20029;-39
2022/12/31 00:53:13;;;;;;;1.40;0.75;;;9.10;99.90;;;;;;5071860;28;20485;-39
2022/12/31 00:55:38;;;;;;;0.70;0.70;;;9.10;99.90;;;;;;5071242;28;20036;-36
2022/12/31 00:58:04;;;;;;;0.85;0.70;;;9.10;99.90;;;;;;5071027;28;20032;-38
2022/12/31 01:00:30;;;;;;;0.90;0.60;;;9.10;99.90;;;;;;5071168;28;20055;-35
2022/12/31 01:02:55;;;;;;;1.27;0.70;;;9.10;99.90;;;;;;5071186;28;20311;-33
2022/12/31 01:05:21;;;;;;;0.95;0.80;;;9.10;99.90;;;;;;5069692;28;20029;-43
2022/12/31 01:07:46;;;;;;;0.73;0.63;;;9.10;99.90;;;;;;5070838;28;20166;-35
2022/12/31 01:11:17;;;;;;;0.80;0.73;;;9.10;99.90;;;;;;5070952;28;20084;-33
2022/12/31 01:12:58;;;;;;;0.68;0.60;;;9.10;99.90;;;;;;5071073;28;20082;-34
2022/12/31 01:15:24;;;;;;;3.08;0.88;;;9.10;99.90;;;;;;5070925;28;20016;-36
2022/12/31 01:17:50;;;;;;;1.15;0.88;;;9.10;99.90;;;;;;5071326;28;20379;-42
2022/12/31 01:20:16;;;;;;;1.15;0.70;;;9.10;99.90;;;;;;5070979;28;20032;-40
2022/12/31 01:22:41;;;;;;;1.00;0.73;;;9.10;99.90;;;;;;5070927;28;20052;-33
2022/12/31 01:25:07;;;;;;;0.82;0.70;;;9.10;99.90;;;;;;5071543;28;20092;-38
2022/12/31 01:27:33;;;;;;;2.05;0.85;;;9.10;99.90;;;;;;5071014;28;20044;-40
2022/12/31 01:29:58;;;;;;;1.58;0.88;;;9.10;99.90;;;;;;5071195;28;20103;-42
2022/12/31 01:32:24;;;;;;;1.25;0.82;;;9.10;99.90;;;;;;5071022;28;20020;-36
2022/12/31 01:34:49;;;;;;;2.00;0.80;;;9.10;99.90;;;;;;5071386;28;20024;-38
2022/12/31 01:37:16;;;;;;;1.67;0.63;;;9.10;99.90;;;;;;5071158;28;20032;-43
2022/12/31 01:39:41;;;;;;;1.48;0.68;;;9.10;99.90;;;;;;5071259;28;20020;-37
2022/12/31 01:42:10;;;;;;;0.75;0.65;;;9.10;99.90;;;;;;5070754;28;20054;-40
2022/12/31 01:44:39;;;;;;;0.95;0.80;;;9.10;99.90;;;;;;5070874;28;20039;-42
2022/12/31 01:47:11;;;;;;;1.63;0.85;;;9.10;99.90;;;;;;5070584;28;20032;-43
2022/12/31 01:49:54;;;;;;;0.85;0.70;;;9.10;99.90;;;;;;5070688;28;20393;-40
2022/12/31 01:52:33;;;;;;;1.05;0.80;;;9.10;99.90;;;;;;5070679;28;20021;-40
2022/12/31 01:55:06;;;;;;;1.02;0.70;;;9.10;99.90;;;;;;5070506;28;20021;-43
2022/12/31 01:57:32;;;;;;;1.52;0.88;;;9.10;99.90;;;;;;5070460;28;20056;-43
2022/12/31 02:00:00;;;;;;;1.58;0.90;;;9.10;99.90;;;;;;5070670;28;20046;-38
2022/12/31 02:02:26;;;;;;;0.80;0.73;;;9.10;99.90;;;;;;5074116;28;20025;-42
2022/12/31 02:04:56;;;;;;;1.38;0.70;;;9.10;99.90;;;;;;5074109;28;20035;-40
2022/12/31 02:07:22;;;;;;;1.80;0.80;;;9.10;99.90;;;;;;5073701;28;20046;-42
2022/12/31 02:09:48;;;;;;;0.98;0.75;;;9.10;99.90;;;;;;5073859;28;20017;-34
2022/12/31 02:12:13;;;;;;;1.00;0.88;;;9.10;99.90;;;;;;5074082;28;20024;-42
2022/12/31 02:14:43;;;;;;;0.90;0.65;;;9.10;99.90;;;;;;5073869;28;20039;-39
2022/12/31 02:17:46;;;;;;;1.33;0.70;;;9.10;99.90;;;;;;5073528;28;20025;-40
2022/12/31 02:20:54;;;;;;;0.85;0.73;;;9.10;99.90;;;;;;5073879;28;20028;-42
2022/12/31 02:23:38;;;;;;;1.55;0.95;;;9.10;99.90;;;;;;5074017;28;20444;-43
2022/12/31 02:26:16;;;;;;;2.00;0.80;;;9.10;99.90;;;;;;5073448;28;20024;-42
2022/12/31 02:28:55;;;;;;;0.65;0.60;;;9.10;99.90;;;;;;5073667;28;20082;-41
2022/12/31 02:31:25;;;;;;;1.20;0.88;;;9.10;99.90;;;;;;5073896;28;20032;-41
2022/12/31 02:34:03;;;;;;;1.50;0.95;;;9.10;99.90;;;;;;5073837;28;20044;-42
2022/12/31 02:36:34;;;;;;;0.80;0.80;;;9.10;99.90;;;;;;5073214;28;20522;-40
2022/12/31 02:39:03;;;;;;;2.22;1.00;;;9.10;99.90;;;;;;5073666;28;20038;-40
2022/12/31 02:44:25;;;;;;;1.23;0.75;;;9.10;99.90;;;;;;5073470;28;20102;-42
2022/12/31 02:47:04;;;;;;;1.67;0.88;;;9.10;99.90;;;;;;5072653;28;20393;-38
2022/12/31 02:49:52;;;;;;;0.98;0.88;;;9.10;99.90;;;;;;5073335;28;20052;-42
2022/12/31 02:52:45;;;;;;;1.08;0.75;;;9.10;99.90;;;;;;5073278;28;20104;-36
2022/12/31 02:55:38;;;;;;;1.48;0.73;;;9.10;99.90;;;;;;5073452;28;20402;-39
2022/12/31 03:02:12;;;;;;;0.90;0.77;;;9.20;99.90;;;;;;5073427;28;20409;-43
2022/12/31 03:04:30;;;;;;;2.30;0.90;;;9.10;99.90;;;;;;5073182;28;20113;-40
2022/12/31 03:06:49;;;;;;;1.10;0.80;;;9.10;99.90;;;;;;5072700;28;20033;-44
2022/12/31 03:09:14;;;;;;;0.98;0.88;;;9.10;99.90;;;;;;5072720;28;20103;-35
2022/12/31 03:14:24;;;;;;;0.90;0.77;;;9.10;99.90;;;;;;5073167;28;20115;-40
2022/12/31 03:16:50;;;;;;;1.05;0.80;;;9.10;99.90;;;;;;5072686;28;20489;-33
2022/12/31 03:27:28;;;;;;;1.33;1.00;;;9.20;99.90;;;;;;5072271;28;20170;-41
2022/12/31 03:29:53;;;;;;;1.00;0.85;;;9.20;99.90;;;;;;5072472;28;20104;-41
2022/12/31 03:32:19;;;;;;;1.23;1.00;;;9.10;99.90;;;;;;5072412;28;20595;-33
2022/12/31 03:34:45;;;;;;;2.08;0.90;;;9.20;99.90;;;;;;5072573;28;20017;-40
2022/12/31 03:37:10;;;;;;;1.92;1.00;;;9.20;99.90;;;;;;5072000;28;20020;-33
2022/12/31 03:39:36;;;;;;;0.77;0.70;;;9.20;99.90;;;;;;5072198;28;20036;-41
2022/12/31 03:42:02;;;;;;;1.30;0.80;;;9.20;99.90;;;;;;5072273;28;20024;-42
2022/12/31 03:44:27;;;;;;;0.93;0.60;;;9.20;99.90;;;;;;5072178;28;20032;-35
2022/12/31 03:46:53;;;;;;;2.33;1.00;;;9.20;99.90;;;;;;5071973;28;20037;-42
2022/12/31 03:49:18;;;;;;;0.63;0.60;;;9.20;99.90;;;;;;5072356;28;20032;-38
2022/12/31 03:51:44;;;;;;;0.95;0.85;;;9.20;99.90;;;;;;5072158;28;20109;-41
2022/12/31 03:54:09;;;;;;;2.40;0.95;;;9.10;99.90;;;;;;5072228;28;20142;-35
2022/12/31 03:56:35;;;;;;;1.33;0.90;;;9.20;99.90;;;;;;5071703;28;20020;-42
2022/12/31 03:59:01;;;;;;;3.15;1.20;;;9.20;99.90;;;;;;5071898;28;20024;-37
2022/12/31 04:01:26;;;;;;;1.80;0.82;;;9.20;99.90;;;;;;5072485;28;20044;-43
2022/12/31 04:03:52;;;;;;;1.30;0.80;;;9.20;99.90;;;;;;5072107;28;20051;-38
2022/12/31 04:06:17;;;;;;;1.23;0.80;;;9.20;99.90;;;;;;5071503;28;20536;-38
2022/12/31 04:08:43;;;;;;;1.65;0.90;;;9.20;99.90;;;;;;5071879;28;20033;-37
2022/12/31 04:11:09;;;;;;;1.00;0.80;;;9.20;99.90;;;;;;5071640;28;20032;-41
2022/12/31 04:13:34;;;;;;;1.30;0.93;;;9.20;99.90;;;;;;5071750;28;20099;-32
2022/12/31 04:16:00;;;;;;;1.77;0.95;;;9.20;99.90;;;;;;5071825;28;20028;-34
2022/12/31 04:18:25;;;;;;;0.90;0.70;;;9.20;99.90;;;;;;5071804;28;20033;-39
2022/12/31 04:20:51;;;;;;;1.33;0.90;;;9.20;99.90;;;;;;5071676;28;20081;-43
2022/12/31 04:23:17;;;;;;;1.88;0.80;;;9.20;99.90;;;;;;5071416;28;20448;-36
2022/12/31 04:25:42;;;;;;;1.25;0.90;;;9.20;99.90;;;;;;5071597;28;20091;-34
2022/12/31 04:28:08;;;;;;;2.25;1.08;;;9.20;99.90;;;;;;5071429;28;20394;-40
2022/12/31 04:30:33;;;;;;;1.00;0.80;;;9.20;99.90;;;;;;5071323;28;20029;-32
2022/12/31 04:32:59;;;;;;;2.28;1.00;;;9.20;99.90;;;;;;5071915;28;20489;-37
2022/12/31 04:35:24;;;;;;;1.27;1.00;;;9.20;99.90;;;;;;5071883;28;20078;-34
2022/12/31 04:37:50;;;;;;;1.25;0.85;;;9.20;99.90;;;;;;5071128;28;20103;-36
2022/12/31 04:40:16;;;;;;;1.23;0.80;;;9.20;99.90;;;;;;5071658;28;20422;-40
2022/12/31 04:42:41;;;;;;;1.13;0.88;;;9.20;99.90;;;;;;5071518;28;20032;-40
2022/12/31 04:45:08;;;;;;;1.83;0.98;;;9.20;99.90;;;;;;5071715;28;20024;-40
2022/12/31 04:47:33;;;;;;;2.22;1.00;;;9.30;99.90;;;;;;5070994;28;20032;-41
2022/12/31 04:49:59;;;;;;;1.58;0.90;;;9.20;99.90;;;;;;5071278;28;20425;-36
2022/12/31 04:52:24;;;;;;;1.77;0.68;;;9.20;99.90;;;;;;5071058;28;20020;-41
2022/12/31 04:54:50;;;;;;;1.33;0.90;;;9.20;99.90;;;;;;5071280;28;20371;-44
2022/12/31 04:57:16;;;;;;;0.98;0.77;;;9.20;99.90;;;;;;5071118;28;20104;-34
2022/12/31 04:59:41;;;;;;;1.27;0.85;;;9.20;99.90;;;;;;5071282;28;20020;-35
2022/12/31 05:02:07;;;;;;;1.00;0.80;;;9.30;99.90;;;;;;5071113;28;20037;-33
2022/12/31 05:04:32;;;;;;;1.73;0.90;;;9.30;99.90;;;;;;5071598;28;20166;-34
2022/12/31 05:06:58;;;;;;;1.80;0.85;;;9.30;99.90;;;;;;5070695;28;20043;-38
2022/12/31 05:09:26;;;;;;;1.25;0.85;;;9.20;99.90;;;;;;5071199;28;20028;-38
2022/12/31 05:11:52;;;;;;;0.85;0.65;;;9.30;99.90;;;;;;5071111;28;20155;-39
2022/12/31 05:14:17;;;;;;;1.98;0.85;;;9.20;99.90;;;;;;5071058;28;20115;-42
2022/12/31 05:16:43;;;;;;;1.42;0.88;;;9.20;99.90;;;;;;5071183;28;20029;-33
2022/12/31 05:19:08;;;;;;;1.52;0.90;;;9.30;99.90;;;;;;5070979;28;20025;-37
2022/12/31 05:21:35;;;;;;;1.02;0.73;;;9.30;99.90;;;;;;5070861;28;20070;-43
2022/12/31 05:24:00;;;;;;;1.42;0.65;;;9.30;99.90;;;;;;5070881;28;20028;-39
2022/12/31 05:26:26;;;;;;;1.30;0.77;;;9.30;99.90;;;;;;5070576;28;20074;-36
2022/12/31 05:28:52;;;;;;;1.50;0.80;;;9.30;99.90;;;;;;5070875;28;20445;-34
2022/12/31 05:31:17;;;;;;;0.95;0.70;;;9.30;99.90;;;;;;5070829;28;20115;-35
2022/12/31 05:33:43;;;;;;;1.60;0.90;;;9.30;99.90;;;;;;5071184;28;20032;-43
2022/12/31 05:36:08;;;;;;;1.23;0.90;;;9.30;99.90;;;;;;5073060;28;20021;-41
2022/12/31 05:38:35;;;;;;;1.13;0.75;;;9.30;99.90;;;;;;5074486;28;20062;-43
2022/12/31 05:41:04;;;;;;;1.55;0.85;;;9.30;99.90;;;;;;5074874;28;20061;-38
2022/12/31 05:43:30;;;;;;;1.90;0.98;;;9.30;99.90;;;;;;5074683;28;20040;-40
2022/12/31 05:45:59;;;;;;;1.00;0.73;;;9.30;99.90;;;;;;5074589;28;20410;-41
2022/12/31 05:48:24;;;;;;;1.08;0.75;;;9.30;99.90;;;;;;5074419;28;20039;-43
2022/12/31 05:50:50;;;;;;;1.08;0.88;;;9.30;99.90;;;;;;5074277;28;20028;-41
2022/12/31 05:53:15;;;;;;;1.33;0.82;;;9.30;99.90;;;;;;5074266;28;20486;-36
2022/12/31 05:55:41;;;;;;;1.27;0.88;;;9.30;99.90;;;;;;5074326;28;20029;-37
2022/12/31 05:58:07;;;;;;;1.70;0.80;;;9.30;99.90;;;;;;5074712;28;20025;-34
2022/12/31 06:00:32;;;;;;;3.10;0.90;;;9.30;99.90;;;;;;5074502;28;20500;-42
2022/12/31 06:02:59;;;;;;;1.98;1.00;;;9.30;99.90;;;;;;5074583;28;20068;-36
2022/12/31 06:05:25;;;;;;;2.92;0.68;;;9.30;99.90;;;;;;5073940;28;20064;-33
2022/12/31 06:07:50;;;;;;;1.27;1.00;;;9.30;99.90;;;;;;5074115;28;20029;-34
2022/12/31 06:10:16;;;;;;;1.77;0.75;;;9.30;99.90;;;;;;5074036;28;20097;-39
2022/12/31 06:12:41;;;;;;;1.17;0.80;;;9.30;99.90;;;;;;5074364;28;20024;-40
2022/12/31 06:15:07;;;;;;;1.50;0.85;;;9.30;99.90;;;;;;5073952;28;20024;-36
2022/12/31 06:17:33;;;;;;;2.45;0.90;;;9.30;99.90;;;;;;5073600;28;20056;-43
2022/12/31 06:19:59;;;;;;;1.45;0.98;;;9.30;99.90;;;;;;5073709;28;20049;-34
2022/12/31 06:22:24;;;;;;;0.93;0.90;;;9.30;99.90;;;;;;5073858;28;20533;-36
2022/12/31 06:24:50;;;;;;;1.33;0.90;;;9.30;99.90;;;;;;5073788;28;20028;-38
2022/12/31 06:27:16;;;;;;;3.83;1.30;;;9.30;99.90;;;;;;5073834;28;20024;-37
2022/12/31 06:29:41;;;;;;;1.10;0.70;;;9.30;99.90;;;;;;5073860;28;20019;-40
2022/12/31 06:32:07;;;;;;;1.65;1.00;;;9.30;99.90;;;;;;5073681;28;20371;-39
2022/12/31 06:34:33;;;;;;;0.90;0.80;;;9.30;99.90;;;;;;5073630;28;20103;-38
2022/12/31 06:36:58;;;;;;;1.40;1.00;;;9.30;99.90;;;;;;5073397;28;20103;-41
2022/12/31 06:39:25;;;;;;;1.63;0.88;;;9.30;99.90;;;;;;5073727;28;20069;-43
2022/12/31 06:41:50;;;;;;;1.55;0.70;;;9.30;99.90;;;;;;5073591;28;20028;-43
2022/12/31 06:44:16;;;;;;;1.00;0.80;;;9.30;99.90;;;;;;5073610;28;20016;-33
2022/12/31 06:46:41;;;;;;;1.00;0.85;;;9.30;99.90;;;;;;5071625;28;20032;-38
2022/12/31 06:49:07;;;;;;;1.23;0.95;;;9.30;99.90;;;;;;5073341;28;20036;-37
2022/12/31 06:51:33;;;;;;;1.42;0.82;;;9.30;99.90;;;;;;5073178;28;20567;-41
2022/12/31 06:53:58;;;;;;;1.00;0.80;;;9.30;99.90;;;;;;5073494;28;20024;-40
2022/12/31 06:56:27;;;;;;;1.88;0.90;;;9.30;99.90;;;;;;5072852;28;20402;-36
2022/12/31 06:58:54;;;;;;;3.13;0.90;;;9.30;99.90;;;;;;5073274;28;20017;-33
2022/12/31 07:01:49;;;;;;;2.03;0.90;;;9.30;99.90;;;;;;5073168;28;20028;-37
2022/12/31 07:04:50;;;;;;;2.53;0.98;;;9.30;99.90;;;;;;5072991;28;20479;-35
2022/12/31 07:07:40;;;;;;;1.05;0.93;;;9.30;99.90;;;;;;5072729;28;20108;-38
2022/12/31 07:10:30;;;;;;;1.23;1.00;;;9.30;99.90;;;;;;5072788;28;20055;-43
2022/12/31 07:13:20;;;;;;;2.75;0.90;;;9.30;99.90;;;;;;5072906;28;20078;-32
2022/12/31 07:15:53;;;;;;;1.52;0.80;;;9.40;99.90;;;;;;5072666;28;20056;-42
2022/12/31 07:18:50;;;;;;;0.88;0.65;;;9.40;99.90;;;;;;5072640;28;20375;-43
2022/12/31 07:21:28;;;;;;;1.08;0.80;;;9.40;99.90;;;;;;5072915;28;20069;-41
2022/12/31 07:23:54;;;;;;;1.15;0.80;;;9.40;99.90;;;;;;5072784;28;20383;-41
2022/12/31 07:26:37;;;;;;;1.67;0.90;;;9.40;99.90;;;;;;5072345;28;20028;-36
2022/12/31 07:29:15;;;;;;;0.70;0.70;;;9.40;99.90;;;;;;5072604;28;20489;-36
2022/12/31 07:32:23;;;;;;;1.10;0.73;;;9.40;99.90;;;;;;5072472;28;20032;-38
2022/12/31 07:35:08;;;;;;;1.88;0.73;;;9.40;99.90;;;;;;5072648;28;20027;-38
2022/12/31 07:37:59;;;;;;;1.40;0.90;;;9.40;99.90;;;;;;5072099;28;20039;-43
2022/12/31 07:40:52;;;;;;;1.75;0.80;;;9.30;99.90;;;;;;5073085;28;20036;-43
2022/12/31 07:43:36;;;;;;;1.45;1.20;;;9.40;99.90;;;;;;5072682;28;20039;-39
2022/12/31 07:46:10;;;;;;;1.20;0.90;;;9.30;99.90;;;;;;5072346;28;20025;-43
2022/12/31 07:48:36;;;;;;;1.27;0.90;;;9.40;99.90;;;;;;5072643;28;20486;-35
2022/12/31 07:51:02;;;;;;;1.30;0.80;;;9.40;99.90;;;;;;5071967;28;20046;-41
2022/12/31 07:53:28;;;;;;;1.15;0.90;;;9.40;99.90;;;;;;5072031;28;20103;-37
2022/12/31 07:56:02;;;;;;;1.35;0.90;;;9.40;99.90;;;;;;5071596;28;20402;-34
2022/12/31 07:58:52;;;;;;;1.00;0.90;;;9.40;99.90;;;;;;5071295;28;20048;-35
2022/12/31 08:01:45;;;;;;;1.23;0.82;;;9.40;99.90;;;;;;5072124;28;20024;-36
2022/12/31 08:04:45;;;;;;;1.50;0.98;;;9.40;99.90;;;;;;5071796;28;20029;-40
2022/12/31 08:07:13;;;;;;;1.58;1.00;;;9.40;99.90;;;;;;5071756;28;20536;-39
2022/12/31 08:09:58;;;;;;;2.63;1.08;;;9.40;99.90;;;;;;5071934;28;20024;-36
2022/12/31 08:12:29;;;;;;;1.55;0.85;;;9.40;99.90;;;;;;5072207;28;20024;-34
2022/12/31 08:14:55;;;;;;;1.50;0.90;;;9.40;99.90;;;;;;5071665;28;20025;-38
2022/12/31 08:17:21;;;;;;;2.15;0.95;;;9.40;99.90;;;;;;5071279;28;20028;-38
2022/12/31 08:19:46;;;;;;;1.45;0.82;;;9.30;99.90;;;;;;5071796;28;20020;-37
2022/12/31 08:22:33;;;;;;;1.30;0.90;;;9.40;99.90;;;;;;5071592;28;20024;-41
2022/12/31 08:25:27;;;;;;;1.40;1.02;;;9.40;99.90;;;;;;5072102;28;20029;-37
2022/12/31 08:28:26;;;;;;;1.20;0.85;;;9.40;99.90;;;;;;5071326;28;20027;-43
2022/12/31 08:31:18;;;;;;;1.40;1.00;;;9.40;99.90;;;;;;5071407;28;20025;-33
2022/12/31 08:33:55;;;;;;;1.83;1.10;;;9.40;99.90;;;;;;5071920;28;20095;-42
2022/12/31 08:36:28;;;;;;;1.50;0.95;;;9.40;99.90;;;;;;5071564;28;20492;-41
2022/12/31 08:39:04;;;;;;;1.27;0.90;;;9.40;99.90;;;;;;5072161;28;20032;-43
2022/12/31 08:41:45;;;;;;;1.25;0.85;;;9.40;99.90;;;;;;5071640;28;20038;-42
2022/12/31 08:44:10;;;;;;;2.35;0.98;;;9.40;99.90;;;;;;5071533;28;20067;-35
2022/12/31 08:47:01;;;;;;;1.92;0.90;;;9.40;99.90;;;;;;5071150;28;20450;-38
2022/12/31 08:49:30;;;;;;;1.05;0.70;;;9.40;99.90;;;;;;5071318;28;20020;-35
2022/12/31 08:51:56;;;;;;;1.05;0.95;;;9.40;99.90;;;;;;5071245;28;20036;-43
2022/12/31 08:54:22;;;;;;;3.95;0.90;;;9.50;99.90;;;;;;5071237;28;20017;-35
2022/12/31 08:57:26;;;;;;;1.40;0.93;;;9.40;99.90;;;;;;5070870;28;20017;-37
2022/12/31 09:00:10;;;;;;;1.83;1.10;;;9.50;99.90;;;;;;5071196;28;20029;-35
2022/12/31 09:02:50;;;;;;;1.75;1.20;;;9.50;99.90;;;;;;5071506;28;20111;-38
2022/12/31 09:05:22;;;;;;;1.17;0.95;;;9.50;99.90;;;;;;5071781;28;20039;-39
2022/12/31 09:08:14;;;;;;;1.70;1.05;;;9.40;99.90;;;;;;5070908;28;20104;-42
2022/12/31 09:11:09;;;;;;;1.92;1.25;;;9.50;99.90;;;;;;5074338;28;20536;-40
2022/12/31 09:13:55;;;;;;;2.47;1.30;;;9.50;99.90;;;;;;5075349;28;20028;-37
2022/12/31 09:17:00;;;;;;;1.65;1.35;;;9.50;99.90;;;;;;5075096;28;20383;-39
2022/12/31 09:19:26;;;;;;;1.75;1.30;;;9.50;99.90;;;;;;5072191;28;20040;-42
2022/12/31 09:21:52;;;;;;;2.03;1.30;;;9.50;99.90;;;;;;5075130;28;20402;-35
2022/12/31 09:24:18;;;;;;;2.75;1.67;;;9.50;99.90;;;;;;5075250;28;20028;-40
2022/12/31 09:27:04;;;;;;;1.95;1.52;;;9.50;99.90;;;;;;5074633;28;20082;-39
2022/12/31 09:29:50;;;;;;;2.17;1.60;;;9.60;99.90;;;;;;5075076;28;20024;-37
2022/12/31 09:32:25;;;;;;;2.00;1.50;;;9.60;99.90;;;;;;5075147;28;20021;-42
2022/12/31 09:34:55;;;;;;;3.75;1.30;;;9.60;99.90;;;;;;5075236;28;20025;-37
2022/12/31 09:37:32;;;;;;;2.35;1.42;;;9.60;99.90;;;;;;5074519;28;20063;-34
2022/12/31 09:40:01;;;;;;;2.17;1.33;;;9.60;99.90;;;;;;5074718;28;20032;-37
2022/12/31 09:43:01;;;;;;;1.48;1.08;;;9.70;99.90;;;;;;5074601;28;20028;-41
2022/12/31 09:46:02;;;;;;;2.00;0.70;;;9.70;99.90;;;;;;5074474;28;20051;-39
2022/12/31 09:48:39;;;;;;;1.80;0.75;;;9.90;99.90;;;;;;5074245;28;20024;-35
2022/12/31 09:51:25;;;;;;;3.28;1.00;;;10.00;99.90;;;;;;5074346;28;20367;-36
2022/12/31 09:53:51;;;;;;;1.05;0.60;;;10.10;99.90;;;;;;5074455;28;20023;-35
2022/12/31 09:56:28;;;;;;;0.90;0.80;;;10.20;99.90;;;;;;5073962;28;20402;-37
2022/12/31 09:59:31;;;;;;;1.10;0.70;;;10.20;99.90;;;;;;5074233;28;20029;-38
2022/12/31 10:02:29;;;;;;;1.23;0.70;;;10.30;99.90;;;;;;5074206;28;20078;-35
2022/12/31 10:05:15;;;;;;;0.73;0.60;;;10.30;99.90;;;;;;5074066;28;20506;-38
2022/12/31 10:07:59;;;;;;;1.20;0.68;;;10.40;99.90;;;;;;5073976;28;20127;-36
2022/12/31 10:10:33;;;;;;;2.67;0.55;;;10.40;99.90;;;;;;5074070;28;20103;-36
2022/12/31 10:13:19;;;;;;;2.15;0.85;;;10.50;99.90;;;;;;5074103;28;20079;-35
2022/12/31 10:16:43;;;;;;;1.63;0.68;;;10.50;99.90;;;;;;5073781;28;20028;-38
2022/12/31 10:19:38;;;;;;;1.92;0.63;;;10.60;99.90;;;;;;5050864;28;20033;-34
2022/12/31 10:22:17;;;;;;;0.98;0.77;;;10.60;99.90;;;;;;5073279;28;20025;-37
2022/12/31 10:24:55;;;;;;;1.52;1.00;;;10.70;99.90;;;;;;5073836;28;20024;-37
2022/12/31 10:27:41;;;;;;;1.98;0.98;;;10.70;99.90;;;;;;5073592;28;20033;-35
2022/12/31 10:30:22;;;;;;;3.75;1.00;;;10.80;99.90;;;;;;5073677;28;20032;-36
2022/12/31 10:33:06;;;;;;;1.48;1.00;;;10.80;99.90;;;;;;5073657;28;20383;-40
2022/12/31 10:35:42;;;;;;;1.95;1.20;;;10.80;99.90;;;;;;5073546;28;20391;-34
2022/12/31 10:38:32;;;;;;;3.38;1.30;;;10.80;99.90;;;;;;5073421;28;20196;-36
2022/12/31 10:41:04;;;;;;;1.90;1.10;;;10.90;99.90;;;;;;5073513;28;20074;-35
2022/12/31 10:43:49;;;;;;;2.35;1.27;;;11.00;99.90;;;;;;5073426;28;20029;-37
2022/12/31 10:46:24;;;;;;;1.88;1.10;;;11.00;99.90;;;;;;5073227;28;20032;-38
2022/12/31 10:49:04;;;;;;;4.50;1.20;;;11.10;99.90;;;;;;5073602;28;20029;-33
2022/12/31 10:51:48;;;;;;;2.50;1.30;;;11.00;99.90;;;;;;5073280;28;20035;-36
2022/12/31 10:54:49;;;;;;;2.28;1.30;;;11.10;99.90;;;;;;5073537;28;20027;-43
2022/12/31 10:57:36;;;;;;;2.22;1.05;;;11.10;99.90;;;;;;5073098;28;20081;-42
2022/12/31 11:00:18;;;;;;;2.40;1.10;;;11.10;99.90;;;;;;5073114;28;20029;-35
2022/12/31 11:03:22;;;;;;;1.20;0.90;;;11.20;99.90;;;;;;5073146;28;20031;-43
2022/12/31 11:06:31;;;;;;;1.40;0.98;;;11.10;99.90;;;;;;5054277;28;20046;-37
2022/12/31 11:09:08;;;;;;;1.73;1.00;;;11.10;99.90;;;;;;5010774;28;20025;-32
2022/12/31 11:11:43;;;;;;;1.55;0.80;;;11.10;99.90;;;;;;5064780;28;20529;-37
2022/12/31 11:14:21;;;;;;;1.27;1.02;;;11.10;99.90;;;;;;5072865;28;20016;-37
2022/12/31 11:16:54;;;;;;;2.17;1.05;;;11.10;99.90;;;;;;5072649;28;20032;-36
2022/12/31 11:20:09;;;;;;;1.90;1.10;;;11.10;99.90;;;;;;5072795;28;20508;-40
2022/12/31 11:23:08;;;;;;;3.03;0.90;;;11.10;99.90;;;;;;5072638;28;20103;-39
2022/12/31 11:25:53;;;;;;;2.08;1.05;;;11.10;99.90;;;;;;5052429;28;20486;-34
2022/12/31 11:28:33;;;;;;;;;;;11.10;99.90;;;;;;5072966;28;20027;-39
2022/12/31 11:31:34;;;;;;;2.45;1.00;;;11.10;99.90;;;;;;5072970;28;20045;-36
2022/12/31 11:34:10;;;;;;;2.35;1.00;;;11.10;99.90;;;;;;5071755;28;20063;-39
2022/12/31 11:37:12;;;;;;;1.27;1.00;;;11.00;99.90;;;;;;5072218;28;20074;-37
2022/12/31 11:40:13;;;;;;;2.03;0.88;;;11.00;99.90;;;;;;5072374;28;20020;-41
2022/12/31 11:42:50;;;;;;;1.70;0.93;;;11.00;99.90;;;;;;5070808;28;20035;-38
2022/12/31 11:45:41;;;;;;;1.30;0.90;;;11.00;99.90;;;;;;5072242;28;20066;-36
2022/12/31 11:48:41;;;;;;;1.65;1.10;;;11.00;99.90;;;;;;5072029;28;20028;-34
2022/12/31 11:51:31;;;;;;;1.65;1.13;;;11.00;99.90;;;;;;5058483;28;20454;-36
2022/12/31 11:54:06;;;;;;;2.10;1.23;;;10.90;99.90;;;;;;5072111;28;20017;-39
2022/12/31 11:56:52;;;;;;;1.90;1.13;;;10.90;99.90;;;;;;5071762;28;20028;-35
2022/12/31 11:59:19;;;;;;;2.38;1.30;;;10.90;99.90;;;;;;5071956;28;20411;-32
2022/12/31 12:02:03;;;;;;;1.88;1.17;;;10.90;99.90;;;;;;5072173;28;20034;-33
2022/12/31 12:04:29;;;;;;;2.00;1.17;;;10.90;99.90;;;;;;5072037;28;20107;-33
2022/12/31 12:06:55;;;;;;;2.22;1.30;;;10.90;99.90;;;;;;5071514;28;20251;-38
2022/12/31 12:09:33;;;;;;;1.92;1.30;;;10.80;99.90;;;;;;5071945;28;20103;-33
2022/12/31 12:12:02;;;;;;;2.70;1.10;;;10.90;99.90;;;;;;5071925;28;20032;-38
2022/12/31 12:14:42;;;;;;;1.65;1.10;;;10.90;99.90;;;;;;5072248;28;20513;-37
2022/12/31 12:17:13;;;;;;;2.28;1.10;;;10.90;99.90;;;;;;5071452;28;20083;-41
2022/12/31 12:19:53;;;;;;;2.58;1.17;;;10.80;99.90;;;;;;5071717;28;20063;-41
2022/12/31 12:22:24;;;;;;;1.77;1.13;;;10.80;99.90;;;;;;5071542;28;20040;-33
2022/12/31 12:25:14;;;;;;;1.80;1.20;;;10.80;99.90;;;;;;5071748;28;20479;-36
2022/12/31 12:27:40;;;;;;;2.03;1.10;;;10.80;99.90;;;;;;5071381;28;20091;-35
2022/12/31 12:30:24;;;;;;;1.80;1.10;;;10.80;99.90;;;;;;5071443;28;20024;-38
2022/12/31 12:33:03;;;;;;;1.77;1.15;;;10.80;99.90;;;;;;5070259;28;20028;-41
2022/12/31 12:35:34;;;;;;;1.67;1.13;;;10.80;99.90;;;;;;5071457;28;20048;-33
2022/12/31 12:38:12;;;;;;;1.95;1.17;;;10.80;99.90;;;;;;5071239;28;20016;-41
2022/12/31 12:40:39;;;;;;;0.95;0.85;;;10.80;99.90;;;;;;5071388;28;20043;-34
2022/12/31 12:43:05;;;;;;;1.70;1.10;;;10.80;99.90;;;;;;5071332;28;20067;-35
2022/12/31 12:45:45;;;;;;;1.10;0.90;;;10.80;99.90;;;;;;5071056;28;20032;-35
2022/12/31 12:48:24;;;;;;;1.92;1.10;;;10.80;99.90;;;;;;5071182;28;20039;-36
2022/12/31 12:50:49;;;;;;;0.85;0.80;;;10.80;99.90;;;;;;5071392;28;20029;-41
2022/12/31 12:53:21;;;;;;;8.13;0.95;;;10.80;99.90;;;;;;5071352;28;20017;-40
2022/12/31 12:56:26;;;;;;;1.42;0.70;;;10.80;99.90;;;;;;5068789;28;20028;-35
2022/12/31 12:59:22;;;;;;;1.25;0.80;;;10.90;99.90;;;;;;5069895;28;20078;-39
2022/12/31 13:01:55;;;;;;;1.27;0.50;;;11.10;99.90;;;;;;5070233;28;20025;-42
2022/12/31 13:05:10;;;;;;;0.90;0.60;;;11.20;99.90;;;;;;5071072;28;20490;-37
2022/12/31 13:08:01;;;;;;;4.40;0.57;;;11.30;99.90;;;;;;5044784;28;20040;-44
2022/12/31 13:10:48;;;;;;;0.82;0.60;;;11.30;99.90;;;;;;5071001;28;20541;-44
2022/12/31 13:13:33;;;;;;;1.00;0.50;;;11.30;99.90;;;;;;5071045;28;20039;-40
2022/12/31 13:16:29;;;;;;;1.20;0.45;;;11.30;99.90;;;;;;5070920;28;20025;-42
2022/12/31 13:19:21;;;;;;;2.10;0.50;;;11.40;99.90;;;;;;5071064;28;20073;-42
2022/12/31 13:21:56;;;;;;;0.60;0.38;;;11.30;99.90;;;;;;5071104;28;20025;-41
2022/12/31 13:24:31;;;;;;;1.20;0.50;;;11.40;99.90;;;;;;5070887;28;20051;-41
2022/12/31 13:27:07;;;;;;;0.80;0.40;;;11.40;99.90;;;;;;5070547;28;20035;-39
2022/12/31 13:29:34;;;;;;;0.90;0.65;;;11.40;99.90;;;;;;5071337;28;20117;-44
2022/12/31 13:32:04;;;;;;;0.77;0.50;;;11.40;99.90;;;;;;5071109;28;20557;-45
2022/12/31 13:34:33;;;;;;;1.10;0.60;;;11.40;99.90;;;;;;5071090;28;20021;-45
2022/12/31 13:37:05;;;;;;;0.40;0.28;;;11.40;99.90;;;;;;5070534;28;20032;-41
2022/12/31 13:39:37;;;;;;;0.43;0.32;;;11.40;99.90;;;;;;5070800;28;20031;-42
2022/12/31 13:42:34;;;;;;;1.48;0.50;;;11.40;99.90;;;;;;5070877;28;20108;-45
2022/12/31 13:45:04;;;;;;;1.73;0.50;;;11.40;99.90;;;;;;5070847;28;20035;-45
2022/12/31 13:47:38;;;;;;;0.63;0.50;;;11.40;99.90;;;;;;5070374;28;20025;-40
2022/12/31 13:50:50;;;;;;;1.57;0.50;;;11.40;99.90;;;;;;5071010;28;20486;-44
2022/12/31 13:53:27;;;;;;;1.17;0.40;;;11.40;99.90;;;;;;5068333;28;20032;-44